createdAt,value
2023-04-19T00:01:25.271Z,87.01
2023-04-19T00:04:27.574Z,86.68
2023-04-19T00:07:29.880Z,87.44
2023-04-19T00:10:32.618Z,87.65
2023-04-19T00:13:35.298Z,88.00
2023-04-19T00:16:37.574Z,87.78
2023-04-19T00:19:39.915Z,87.16
2023-04-19T00:22:42.266Z,86.67
2023-04-19T00:25:46.776Z,86.69
2023-04-19T00:28:49.027Z,86.74
2023-04-19T00:31:51.181Z,87.08
2023-04-19T00:34:53.378Z,86.82
2023-04-19T00:37:57.124Z,86.72
2023-04-19T00:41:00.034Z,86.03
2023-04-19T00:44:02.180Z,85.96
2023-04-19T00:47:04.997Z,85.04
2023-04-19T00:50:07.893Z,85.50
2023-04-19T00:53:11.077Z,85.09
2023-04-19T00:56:14.132Z,86.20
2023-04-19T00:59:16.908Z,86.78
2023-04-19T01:02:19.131Z,86.59
2023-04-19T01:05:21.305Z,87.04
2023-04-19T01:08:24.085Z,87.50
2023-04-19T01:11:29.810Z,86.74
2023-04-19T01:14:31.869Z,86.84
2023-04-19T01:17:34.725Z,86.89
2023-04-19T01:20:37.095Z,87.00
2023-04-19T01:23:39.950Z,86.31
2023-04-19T01:26:42.422Z,85.49
2023-04-19T01:29:44.690Z,85.45
2023-04-19T01:32:46.885Z,84.75
2023-04-19T01:35:50.008Z,84.42
2023-04-19T01:38:52.469Z,83.94
2023-04-19T01:41:54.856Z,84.54
2023-04-19T01:44:56.965Z,83.99
2023-04-19T01:47:59.744Z,84.31
2023-04-19T01:51:02.124Z,84.61
2023-04-19T01:54:04.410Z,85.47
2023-04-19T01:57:06.454Z,84.63
2023-04-19T02:00:09.446Z,85.35
2023-04-19T02:03:17.655Z,84.52
2023-04-19T02:06:20.089Z,84.53
2023-04-19T02:09:25.274Z,85.25
2023-04-19T02:12:31.412Z,84.77
2023-04-19T02:15:33.652Z,85.13
2023-04-19T02:18:41.864Z,84.87
2023-04-19T02:21:43.922Z,83.99
2023-04-19T02:24:51.694Z,83.89
2023-04-19T02:27:54.126Z,83.48
2023-04-19T02:30:56.673Z,83.95
2023-04-19T02:33:58.977Z,84.41
2023-04-19T02:37:02.437Z,84.64
2023-04-19T02:40:06.148Z,83.50
2023-04-19T02:43:08.268Z,83.82
2023-04-19T02:46:10.732Z,84.48
2023-04-19T02:49:13.192Z,84.82
2023-04-19T02:52:15.509Z,84.12
2023-04-19T02:55:17.531Z,82.03
2023-04-19T02:58:21.499Z,83.46
2023-04-19T03:01:35.656Z,83.88
2023-04-19T03:04:40.743Z,83.10
2023-04-19T03:07:44.438Z,82.13
2023-04-19T03:10:47.228Z,82.41
2023-04-19T03:13:49.288Z,83.33
2023-04-19T03:16:51.402Z,82.43
2023-04-19T03:19:54.227Z,82.92
2023-04-19T03:22:56.635Z,83.11
2023-04-19T03:25:59.044Z,84.03
2023-04-19T03:29:14.542Z,84.38
2023-04-19T03:32:36.944Z,82.95
2023-04-19T03:35:39.204Z,83.65
2023-04-19T03:38:46.143Z,83.91
2023-04-19T03:41:53.026Z,82.71
2023-04-19T03:44:59.964Z,82.56
2023-04-19T03:48:04.109Z,83.66
2023-04-19T03:51:06.560Z,84.20
2023-04-19T03:54:08.910Z,83.67
2023-04-19T03:57:13.644Z,84.16
2023-04-19T04:00:16.972Z,83.01
2023-04-19T04:03:25.073Z,83.39
2023-04-19T04:06:28.321Z,83.99
2023-04-19T04:09:30.926Z,83.99
2023-04-19T04:12:34.209Z,82.39
2023-04-19T04:15:38.302Z,81.76
2023-04-19T04:18:40.686Z,82.34
2023-04-19T04:21:45.940Z,82.44
2023-04-19T04:24:49.471Z,83.86
2023-04-19T04:28:11.823Z,83.77
2023-04-19T04:31:18.358Z,83.53
2023-04-19T04:34:21.962Z,83.12
2023-04-19T04:37:34.761Z,83.96
2023-04-19T04:40:36.861Z,83.98
2023-04-19T04:43:39.884Z,85.37
2023-04-19T04:46:42.156Z,85.29
2023-04-19T04:49:47.180Z,83.19
2023-04-19T04:52:49.427Z,83.91
2023-04-19T04:55:56.588Z,85.03
2023-04-19T04:58:59.452Z,85.29
2023-04-19T05:02:07.011Z,84.03
2023-04-19T05:05:11.456Z,83.15
2023-04-19T05:08:13.804Z,83.18
2023-04-19T05:11:17.436Z,82.38
2023-04-19T05:14:20.350Z,81.88
2023-04-19T05:17:23.394Z,82.41
2023-04-19T05:20:26.185Z,82.24
2023-04-19T05:23:38.236Z,82.43
2023-04-19T05:26:40.747Z,82.24
2023-04-19T05:29:44.208Z,82.89
2023-04-19T05:32:46.709Z,82.36
2023-04-19T05:35:49.974Z,82.44
2023-04-19T05:38:52.210Z,82.30
2023-04-19T05:41:54.481Z,81.78
2023-04-19T05:44:56.672Z,82.72
2023-04-19T05:47:58.909Z,83.05
2023-04-19T05:51:28.788Z,83.46
2023-04-19T05:54:36.324Z,82.59
2023-04-19T05:57:39.916Z,81.84
2023-04-19T06:00:43.200Z,82.78
2023-04-19T06:03:53.418Z,82.78
2023-04-19T06:06:56.933Z,83.24
2023-04-19T06:09:59.176Z,82.09
2023-04-19T06:13:02.050Z,82.43
2023-04-19T06:16:04.834Z,81.70
2023-04-19T06:19:08.510Z,82.77
2023-04-19T06:22:10.981Z,83.20
2023-04-19T06:25:13.350Z,82.90
2023-04-19T06:28:16.008Z,82.41
2023-04-19T06:31:18.385Z,83.10
2023-04-19T06:34:20.964Z,83.26
2023-04-19T06:37:23.339Z,83.96
2023-04-19T06:40:29.267Z,83.27
2023-04-19T06:43:31.331Z,82.56
2023-04-19T06:46:33.447Z,83.39
2023-04-19T06:49:35.768Z,83.26
2023-04-19T06:52:38.478Z,83.66
2023-04-19T06:55:40.549Z,83.82
2023-04-19T06:59:07.198Z,83.21
2023-04-19T07:02:09.475Z,83.08
2023-04-19T07:05:13.665Z,82.65
2023-04-19T07:08:16.457Z,83.42
2023-04-19T07:11:19.772Z,83.90
2023-04-19T07:14:24.214Z,82.95
2023-04-19T07:17:26.540Z,84.16
2023-04-19T07:20:29.428Z,83.62
2023-04-19T07:23:32.218Z,84.30
2023-04-19T07:26:35.293Z,83.92
2023-04-19T07:29:38.073Z,84.55
2023-04-19T07:32:40.461Z,85.08
2023-04-19T07:35:42.913Z,85.31
2023-04-19T07:38:45.223Z,85.85
2023-04-19T07:41:47.701Z,86.15
2023-04-19T07:44:49.943Z,85.96
2023-04-19T07:47:52.139Z,85.79
2023-04-19T07:50:54.652Z,85.22
2023-04-19T07:53:56.906Z,84.72
2023-04-19T07:56:59.383Z,84.50
2023-04-19T08:00:02.657Z,83.44
2023-04-19T08:03:16.954Z,83.64
2023-04-19T08:06:19.265Z,84.17
2023-04-19T08:09:21.927Z,84.88
2023-04-19T08:12:36.307Z,83.77
2023-04-19T08:18:46.650Z,83.69
2023-04-19T08:21:48.844Z,83.63
2023-04-19T08:24:53.881Z,83.78
2023-04-19T08:27:57.815Z,85.24
2023-04-19T08:31:00.171Z,84.47
2023-04-19T08:34:03.189Z,84.19
2023-04-19T08:37:05.564Z,85.46
2023-04-19T08:40:08.786Z,85.09
2023-04-19T08:43:11.197Z,85.52
2023-04-19T08:46:13.560Z,85.54
2023-04-19T08:49:17.041Z,83.27
2023-04-19T08:52:19.818Z,83.90
2023-04-19T08:55:22.062Z,84.16
2023-04-19T08:58:33.273Z,84.96
2023-04-19T09:01:44.660Z,83.46
2023-04-19T09:04:47.303Z,83.84
2023-04-19T09:07:49.919Z,82.87
2023-04-19T09:10:57.296Z,84.11
2023-04-19T09:14:11.485Z,85.40
2023-04-19T09:17:17.373Z,83.60
2023-04-19T09:20:36.589Z,84.61
2023-04-19T09:23:48.177Z,83.24
2023-04-19T09:26:58.139Z,84.79
2023-04-19T09:30:02.042Z,84.66
2023-04-19T09:33:04.427Z,84.18
2023-04-19T09:36:08.280Z,82.56
2023-04-19T09:39:11.551Z,84.08
2023-04-19T09:42:14.622Z,84.17
2023-04-19T09:48:23.613Z,83.72
2023-04-19T09:51:41.265Z,85.06
2023-04-19T09:54:44.591Z,84.01
2023-04-19T09:57:46.655Z,83.94
2023-04-19T10:00:57.210Z,82.78
2023-04-19T10:04:23.776Z,82.23
2023-04-19T10:07:30.973Z,82.44
2023-04-19T10:10:42.154Z,81.36
2023-04-19T10:13:47.535Z,82.12
2023-04-19T10:16:50.664Z,81.94
2023-04-19T10:20:06.959Z,82.23
2023-04-19T10:23:09.714Z,82.44
2023-04-19T10:26:11.876Z,83.13
2023-04-19T10:29:14.249Z,83.68
2023-04-19T10:32:16.689Z,83.48
2023-04-19T10:35:25.031Z,81.90
2023-04-19T10:38:56.678Z,82.92
2023-04-19T10:41:59.743Z,83.18
2023-04-19T10:45:34.699Z,82.97
2023-04-19T10:48:39.340Z,82.96
2023-04-19T10:51:50.532Z,84.26
2023-04-19T10:54:56.952Z,82.64
2023-04-19T10:58:06.751Z,83.62
2023-04-19T11:01:40.041Z,83.98
2023-04-19T11:04:51.718Z,83.28
2023-04-19T11:07:53.896Z,82.73
2023-04-19T11:10:57.931Z,83.04
2023-04-19T11:14:02.913Z,83.19
2023-04-19T11:17:27.327Z,83.94
2023-04-19T11:20:29.545Z,83.96
2023-04-19T11:23:31.559Z,83.99
2023-04-19T11:26:33.705Z,83.77
2023-04-19T11:29:36.017Z,84.71
2023-04-19T11:32:38.685Z,85.04
2023-04-19T11:35:41.800Z,84.29
2023-04-19T11:38:48.403Z,84.89
2023-04-19T11:41:51.781Z,84.51
2023-04-19T11:44:56.797Z,85.09
2023-04-19T11:47:59.382Z,84.19
2023-04-19T11:51:02.245Z,83.51
2023-04-19T11:54:15.326Z,83.09
2023-04-19T11:57:28.148Z,81.50
2023-04-19T12:00:30.785Z,77.33
2023-04-19T12:03:34.308Z,79.75
2023-04-19T12:06:36.944Z,79.13
2023-04-19T12:09:39.646Z,80.25
2023-04-19T12:12:41.876Z,80.55
2023-04-19T12:15:46.127Z,80.54
2023-04-19T12:18:50.611Z,81.56
2023-04-19T12:21:52.795Z,81.50
2023-04-19T12:24:56.144Z,81.27
2023-04-19T12:27:58.560Z,81.97
2023-04-19T12:31:00.633Z,82.35
2023-04-19T12:34:02.753Z,81.66
2023-04-19T12:37:04.928Z,81.87
2023-04-19T12:40:07.880Z,82.37
2023-04-19T12:43:09.978Z,80.37
2023-04-19T12:46:12.084Z,81.53
2023-04-19T12:49:14.498Z,81.31
2023-04-19T12:52:16.729Z,81.82
2023-04-19T12:55:18.837Z,80.93
2023-04-19T12:58:21.776Z,80.32
2023-04-19T13:01:23.941Z,82.21
2023-04-19T13:04:26.380Z,80.69
2023-04-19T13:07:28.984Z,79.41
2023-04-19T13:10:31.589Z,80.83
2023-04-19T13:13:34.954Z,81.34
2023-04-19T13:16:37.046Z,79.12
2023-04-19T13:19:39.386Z,78.60
2023-04-19T13:22:41.486Z,78.65
2023-04-19T13:25:43.640Z,78.78
2023-04-19T13:28:45.766Z,77.50
2023-04-19T13:31:49.701Z,77.77
2023-04-19T13:34:52.892Z,78.41
2023-04-19T13:37:55.220Z,78.00
2023-04-19T13:40:57.591Z,79.22
2023-04-19T13:43:59.854Z,74.91
2023-04-19T13:47:02.039Z,76.20
2023-04-19T13:50:04.388Z,72.97
2023-04-19T13:53:06.953Z,76.09
2023-04-19T13:56:12.552Z,76.21
2023-04-19T13:59:15.524Z,76.19
2023-04-19T14:02:17.850Z,77.88
2023-04-19T14:05:20.142Z,74.15
2023-04-19T14:08:22.251Z,73.82
2023-04-19T14:11:26.079Z,74.98
2023-04-19T14:14:32.006Z,75.05
2023-04-19T14:17:36.256Z,69.22
2023-04-19T14:20:38.513Z,69.64
2023-04-19T14:23:40.598Z,70.95
2023-04-19T14:26:42.721Z,69.34
2023-04-19T14:29:44.937Z,71.56
2023-04-19T14:32:47.409Z,72.11
2023-04-19T14:35:49.624Z,70.93
2023-04-19T14:38:52.423Z,70.63
2023-04-19T14:41:54.420Z,72.18
2023-04-19T14:44:58.260Z,71.21
2023-04-19T14:48:00.477Z,71.55
2023-04-19T14:51:02.591Z,73.15
2023-04-19T14:54:04.779Z,74.53
2023-04-19T14:57:06.891Z,74.15
2023-04-19T15:00:09.848Z,74.88
2023-04-19T15:03:12.165Z,74.93
2023-04-19T15:06:14.482Z,76.42
2023-04-19T15:09:16.854Z,76.09
2023-04-19T15:12:19.150Z,75.88
2023-04-19T15:15:21.786Z,74.17
2023-04-19T15:18:23.894Z,75.05
2023-04-19T15:21:25.955Z,74.92
2023-04-19T15:24:28.016Z,75.07
2023-04-19T15:27:32.727Z,73.43
2023-04-19T15:30:34.787Z,72.73
2023-04-19T15:33:37.999Z,73.36
2023-04-19T15:36:41.324Z,73.36
2023-04-19T15:39:44.091Z,71.94
2023-04-19T15:42:46.641Z,73.09
2023-04-19T15:45:48.852Z,73.96
2023-04-19T15:48:50.895Z,70.85
2023-04-19T15:51:53.059Z,72.15
2023-04-19T15:54:55.131Z,73.16
2023-04-19T15:57:57.282Z,73.14
2023-04-19T16:00:59.381Z,71.71
2023-04-19T16:04:01.746Z,71.77
2023-04-19T16:07:04.212Z,71.92
2023-04-19T16:10:07.495Z,72.02
2023-04-19T16:13:09.488Z,69.01
2023-04-19T16:16:11.550Z,69.36
2023-04-19T16:19:13.709Z,69.25
2023-04-19T16:22:16.024Z,70.10
2023-04-19T16:25:18.090Z,68.61
2023-04-19T16:28:20.718Z,68.80
2023-04-19T16:31:23.354Z,68.16
2023-04-19T16:34:25.838Z,68.43
2023-04-19T16:37:27.980Z,67.80
2023-04-19T16:40:30.540Z,66.31
2023-04-19T16:43:33.228Z,69.95
2023-04-19T16:46:36.308Z,69.75
2023-04-19T16:49:38.915Z,69.81
2023-04-19T16:52:41.327Z,71.45
2023-04-19T16:55:43.417Z,70.78
2023-04-19T16:58:46.751Z,71.06
2023-04-19T17:01:49.564Z,71.41
2023-04-19T17:04:51.967Z,72.00
2023-04-19T17:07:56.545Z,72.95
2023-04-19T17:10:59.490Z,72.95
2023-04-19T17:14:01.867Z,72.03
2023-04-19T17:17:04.105Z,72.19
2023-04-19T17:20:06.847Z,72.50
2023-04-19T17:23:08.996Z,70.02
2023-04-19T17:26:11.406Z,71.61
2023-04-19T17:29:13.533Z,72.13
2023-04-19T17:32:16.120Z,74.41
2023-04-19T17:35:18.579Z,72.34
2023-04-19T17:38:20.999Z,73.61
2023-04-19T17:41:25.639Z,70.91
2023-04-19T17:44:30.873Z,71.19
2023-04-19T17:47:33.737Z,73.24
2023-04-19T17:50:36.716Z,73.67
2023-04-19T17:53:38.989Z,74.81
2023-04-19T17:56:41.793Z,76.28
2023-04-19T17:59:44.403Z,76.65
2023-04-19T18:02:47.499Z,77.58
2023-04-19T18:05:50.910Z,74.87
2023-04-19T18:08:54.823Z,75.11
2023-04-19T18:11:58.317Z,75.25
2023-04-19T18:15:09.276Z,75.17
2023-04-19T18:18:13.657Z,72.99
2023-04-19T18:21:17.039Z,72.83
2023-04-19T18:24:20.138Z,72.69
2023-04-19T18:27:25.221Z,73.54
2023-04-19T18:30:28.167Z,74.90
2023-04-19T18:33:30.986Z,74.91
2023-04-19T18:36:34.073Z,75.61
2023-04-19T18:39:37.012Z,76.68
2023-04-19T18:42:40.392Z,76.83
2023-04-19T18:45:44.029Z,77.73
2023-04-19T18:48:49.275Z,78.14
2023-04-19T18:51:52.554Z,78.87
2023-04-19T18:54:56.841Z,79.26
2023-04-19T18:58:01.183Z,79.68
2023-04-19T19:01:05.057Z,79.93
2023-04-19T19:04:28.291Z,80.84
2023-04-19T19:07:36.621Z,80.85
2023-04-19T19:11:12.653Z,81.24
2023-04-19T19:14:03.572Z,80.95
2023-04-19T19:17:07.647Z,80.75
2023-04-19T19:20:11.101Z,82.53
2023-04-19T19:23:14.601Z,82.42
2023-04-19T19:26:17.903Z,81.85
2023-04-19T19:29:22.514Z,81.87
2023-04-19T19:32:26.150Z,82.22
2023-04-19T19:35:31.918Z,81.52
2023-04-19T19:38:40.074Z,81.23
2023-04-19T19:44:55.238Z,80.98
2023-04-19T19:48:02.495Z,81.12
2023-04-19T19:51:36.361Z,82.13
2023-04-19T19:54:29.891Z,82.28
2023-04-19T20:00:46.113Z,82.69
2023-04-19T20:03:50.552Z,83.06
2023-04-19T20:10:00.717Z,83.17
2023-04-19T20:13:04.316Z,83.79
2023-04-19T20:16:08.232Z,83.65
2023-04-19T20:19:11.274Z,83.64
2023-04-19T20:22:16.218Z,83.80
2023-04-19T20:25:19.497Z,83.73
2023-04-19T20:28:22.247Z,83.76
2023-04-19T20:31:25.061Z,83.77
2023-04-19T20:34:28.092Z,84.09
2023-04-19T20:37:31.776Z,84.25
2023-04-19T20:40:35.214Z,84.59
2023-04-19T20:43:38.196Z,84.98
2023-04-19T20:46:41.715Z,85.14
2023-04-19T20:49:44.874Z,85.41
2023-04-19T20:52:47.858Z,85.62
2023-04-19T20:55:53.696Z,85.91
2023-04-19T20:58:57.051Z,85.95
2023-04-19T21:02:00.461Z,86.03
2023-04-19T21:05:02.734Z,85.92
2023-04-19T21:08:05.076Z,86.23
2023-04-19T21:11:07.184Z,86.27
2023-04-19T21:14:09.381Z,86.54
2023-04-19T21:17:11.529Z,86.46
2023-04-19T21:20:14.748Z,86.21
2023-04-19T21:23:16.971Z,86.39
2023-04-19T21:26:19.090Z,86.49
2023-04-19T21:29:21.390Z,86.32
2023-04-19T21:32:23.561Z,87.03
2023-04-19T21:35:25.648Z,86.95
2023-04-19T21:38:27.865Z,86.93
2023-04-19T21:41:30.093Z,86.87
2023-04-19T21:44:33.570Z,86.91
2023-04-19T21:47:35.853Z,86.62
2023-04-19T21:50:37.953Z,86.11
2023-04-19T21:53:40.233Z,86.12
2023-04-19T21:56:42.252Z,86.16
2023-04-19T21:59:44.277Z,85.72
2023-04-19T22:02:46.369Z,86.01
2023-04-19T22:05:48.723Z,84.43
2023-04-19T22:08:51.846Z,82.90
2023-04-19T22:11:53.911Z,82.60
2023-04-19T22:14:56.128Z,83.04
2023-04-19T22:17:58.847Z,82.25
2023-04-19T22:21:01.066Z,83.18
2023-04-19T22:24:06.537Z,83.67
2023-04-19T22:27:08.660Z,84.02
2023-04-19T22:30:11.070Z,84.90
2023-04-19T22:33:13.136Z,84.85
2023-04-19T22:36:15.160Z,85.46
2023-04-19T22:39:18.604Z,85.56
2023-04-19T22:42:21.745Z,86.08
2023-04-19T22:45:23.869Z,86.40
2023-04-19T22:48:25.993Z,86.38
2023-04-19T22:51:28.162Z,86.67
2023-04-19T22:54:30.219Z,86.62
2023-04-19T22:57:32.417Z,86.67
2023-04-19T23:00:36.201Z,86.81
2023-04-19T23:03:38.356Z,86.81
2023-04-19T23:06:42.725Z,86.89
2023-04-19T23:09:45.069Z,87.17
2023-04-19T23:12:47.692Z,86.89
2023-04-19T23:15:49.864Z,86.95
2023-04-19T23:18:52.534Z,86.96
2023-04-19T23:21:54.717Z,86.98
2023-04-19T23:24:56.783Z,87.31
2023-04-19T23:27:58.868Z,86.88
2023-04-19T23:31:01.602Z,86.31
2023-04-19T23:34:03.719Z,86.63
2023-04-19T23:37:05.858Z,86.36
2023-04-19T23:40:09.487Z,86.15
2023-04-19T23:43:11.647Z,86.00
2023-04-19T23:46:13.819Z,84.80
2023-04-19T23:49:16.254Z,84.41
2023-04-19T23:52:18.528Z,84.62
2023-04-19T23:55:22.458Z,84.13
2023-04-19T23:58:24.574Z,82.52
